BAW658 EGLL-LCLK
Flight info
| Callsign | BAW658 |
|---|---|
| Flight time | N/A |
| Altitude | 37000 |
| Route | DET L6 DVR UL9 KONAN DCT KOK DCT REMBA DCT SPI DCT ULNOK DCT VIBOM DCT NOMBO DCT RIDAR DCT GOMIG DCT GOTAR DCT BABIT DCT KOTUS DCT NISVA N131 USALI DCT RODIP DCT BELGI UN131 KULAR UT39 TOMBI M855 DASNI M601 BONEK |
| Aircraft | A319/M-SDE3FGHIRWY/LB1 |
Departure
| Time | 2026-05-07 21:13 |
|---|---|
| Airport | London Heathrow Airport (EGLL) |
Arrival
| Time | N/A |
|---|---|
| Airport | Larnaca International Airport (LCLK) |
| Time | Latitude | Longitude | Altitude | Speed | Heading |
|---|---|---|---|---|---|
| 2026-05-07 20:50 | 51.47315 | -0.48605 | 86 ft | 0 kts | 270° |
| 2026-05-07 21:03 | 51.47315 | -0.48568 | 88 ft | 4 kts | 270° |
| 2026-05-07 21:03 | 51.47316 | -0.48525 | 86 ft | 3 kts | 270° |
| 2026-05-07 21:03 | 51.47317 | -0.48493 | 86 ft | 4 kts | 229° |
| 2026-05-07 21:03 | 51.47338 | -0.48477 | 88 ft | 4 kts | 183° |
| 2026-05-07 21:04 | 51.47363 | -0.48476 | 87 ft | 3 kts | 180° |
| 2026-05-07 21:04 | 51.47367 | -0.48476 | 86 ft | 0 kts | 180° |
| 2026-05-07 21:06 | 51.47338 | -0.48475 | 88 ft | 8 kts | 176° |
| 2026-05-07 21:06 | 51.47253 | -0.48472 | 86 ft | 16 kts | 179° |
| 2026-05-07 21:06 | 51.47130 | -0.48472 | 86 ft | 19 kts | 180° |
| 2026-05-07 21:06 | 51.46986 | -0.48471 | 88 ft | 21 kts | 180° |
| 2026-05-07 21:07 | 51.46860 | -0.48470 | 86 ft | 16 kts | 179° |
| 2026-05-07 21:07 | 51.46740 | -0.48469 | 86 ft | 19 kts | 179° |
| 2026-05-07 21:07 | 51.46647 | -0.48468 | 86 ft | 11 kts | 179° |
| 2026-05-07 21:07 | 51.46593 | -0.48467 | 86 ft | 1 kts | 180° |
| 2026-05-07 21:08 | 51.46585 | -0.48467 | 86 ft | 0 kts | 180° |
| 2026-05-07 21:09 | 51.46582 | -0.48467 | 86 ft | 2 kts | 180° |
| 2026-05-07 21:09 | 51.46550 | -0.48467 | 86 ft | 7 kts | 180° |
| 2026-05-07 21:09 | 51.46486 | -0.48432 | 87 ft | 12 kts | 124° |
| 2026-05-07 21:10 | 51.46479 | -0.48341 | 87 ft | 0 kts | 89° |
| 2026-05-07 21:12 | 51.46479 | -0.48334 | 87 ft | 5 kts | 89° |
| 2026-05-07 21:12 | 51.46480 | -0.47878 | 87 ft | 78 kts | 89° |
| 2026-05-07 21:13 | 51.46484 | -0.46624 | 89 ft | 145 kts | 90° |
| 2026-05-07 21:13 | 51.46492 | -0.44818 | 496 ft | 166 kts | 91° |
| 2026-05-07 21:13 | 51.46502 | -0.42958 | 1305 ft | 167 kts | 91° |
| 2026-05-07 21:13 | 51.46317 | -0.41129 | 1813 ft | 178 kts | 121° |
| 2026-05-07 21:14 | 51.45494 | -0.39490 | 2128 ft | 201 kts | 131° |
| 2026-05-07 21:14 | 51.44614 | -0.37592 | 2517 ft | 225 kts | 123° |
| 2026-05-07 21:14 | 51.43782 | -0.35320 | 3060 ft | 247 kts | 116° |
| 2026-05-07 21:14 | 51.43334 | -0.32622 | 3922 ft | 255 kts | 101° |
| 2026-05-07 21:15 | 51.42981 | -0.29814 | 4916 ft | 259 kts | 102° |
| 2026-05-07 21:15 | 51.42586 | -0.26962 | 5690 ft | 265 kts | 103° |
| 2026-05-07 21:15 | 51.42185 | -0.24059 | 6496 ft | 269 kts | 102° |
| 2026-05-07 21:15 | 51.41780 | -0.21094 | 7309 ft | 276 kts | 102° |
| 2026-05-07 21:16 | 51.41365 | -0.18061 | 8154 ft | 282 kts | 103° |
| 2026-05-07 21:16 | 51.40942 | -0.14958 | 8999 ft | 288 kts | 103° |
| 2026-05-07 21:16 | 51.40509 | -0.11790 | 9816 ft | 295 kts | 103° |
| 2026-05-07 21:16 | 51.40060 | -0.08524 | 10377 ft | 310 kts | 103° |
| 2026-05-07 21:17 | 51.39576 | -0.05033 | 10635 ft | 333 kts | 103° |
| 2026-05-07 21:17 | 51.39062 | -0.01340 | 11164 ft | 344 kts | 103° |
| 2026-05-07 21:17 | 51.38538 | 0.02408 | 11960 ft | 346 kts | 104° |
| 2026-05-07 21:17 | 51.38010 | 0.06182 | 12728 ft | 349 kts | 104° |
| 2026-05-07 21:18 | 51.37477 | 0.09985 | 13483 ft | 352 kts | 104° |
| 2026-05-07 21:18 | 51.36939 | 0.13823 | 14176 ft | 355 kts | 104° |
| 2026-05-07 21:18 | 51.36394 | 0.17705 | 14798 ft | 359 kts | 104° |
| 2026-05-07 21:18 | 51.35843 | 0.21623 | 15426 ft | 363 kts | 104° |
| 2026-05-07 21:19 | 51.35284 | 0.25579 | 16032 ft | 367 kts | 104° |
| 2026-05-07 21:19 | 51.34718 | 0.29573 | 16650 ft | 370 kts | 104° |
| 2026-05-07 21:19 | 51.34144 | 0.33617 | 17265 ft | 374 kts | 104° |
| 2026-05-07 21:19 | 51.33563 | 0.37697 | 17881 ft | 378 kts | 104° |
| 2026-05-07 21:20 | 51.32976 | 0.41809 | 18465 ft | 382 kts | 104° |
| 2026-05-07 21:20 | 51.32379 | 0.45975 | 18818 ft | 386 kts | 104° |
| 2026-05-07 21:20 | 51.31775 | 0.50175 | 19364 ft | 389 kts | 104° |
| 2026-05-07 21:20 | 51.31165 | 0.54415 | 19931 ft | 393 kts | 104° |
| 2026-05-07 21:21 | 51.30554 | 0.58679 | 20497 ft | 396 kts | 104° |
| 2026-05-07 21:21 | 51.29891 | 0.62978 | 21056 ft | 399 kts | 107° |
| 2026-05-07 21:21 | 51.29145 | 0.67257 | 21612 ft | 402 kts | 108° |
| 2026-05-07 21:21 | 51.28342 | 0.71549 | 22160 ft | 405 kts | 109° |
| 2026-05-07 21:22 | 51.27513 | 0.75864 | 22698 ft | 408 kts | 109° |
| 2026-05-07 21:22 | 51.26675 | 0.80214 | 23227 ft | 411 kts | 109° |
| 2026-05-07 21:22 | 51.25842 | 0.84596 | 23717 ft | 414 kts | 109° |
| 2026-05-07 21:22 | 51.25016 | 0.89018 | 24163 ft | 417 kts | 108° |
| 2026-05-07 21:23 | 51.24195 | 0.93474 | 24608 ft | 420 kts | 108° |
| 2026-05-07 21:23 | 51.23374 | 0.97960 | 25042 ft | 423 kts | 108° |
| 2026-05-07 21:23 | 51.22828 | 1.00943 | 25307 ft | 425 kts | 108° |
| 2026-05-07 21:23 | 51.21993 | 1.05474 | 25713 ft | 427 kts | 108° |
| 2026-05-07 21:24 | 51.21145 | 1.10029 | 26127 ft | 430 kts | 108° |
| 2026-05-07 21:24 | 51.20286 | 1.14615 | 26530 ft | 432 kts | 108° |
| 2026-05-07 21:24 | 51.19420 | 1.19211 | 26937 ft | 435 kts | 108° |
| 2026-05-07 21:24 | 51.18258 | 1.25353 | 27471 ft | 438 kts | 109° |
| 2026-05-07 21:25 | 51.17373 | 1.30017 | 27877 ft | 441 kts | 109° |
| 2026-05-07 21:25 | 51.16779 | 1.33183 | 28125 ft | 443 kts | 107° |
| 2026-05-07 21:25 | 51.16175 | 1.38012 | 28515 ft | 447 kts | 98° |
| 2026-05-07 21:25 | 51.15922 | 1.42971 | 28882 ft | 451 kts | 95° |
| 2026-05-07 21:26 | 51.15692 | 1.47962 | 29235 ft | 454 kts | 96° |
| 2026-05-07 21:26 | 51.15457 | 1.52991 | 29596 ft | 456 kts | 96° |
| 2026-05-07 21:26 | 51.15216 | 1.58041 | 29951 ft | 459 kts | 96° |
| 2026-05-07 21:26 | 51.14967 | 1.63127 | 30275 ft | 461 kts | 96° |
| 2026-05-07 21:27 | 51.14712 | 1.68226 | 30570 ft | 464 kts | 96° |
| 2026-05-07 21:27 | 51.14451 | 1.73355 | 30852 ft | 466 kts | 96° |
| 2026-05-07 21:27 | 51.14187 | 1.78510 | 31135 ft | 468 kts | 96° |
| 2026-05-07 21:27 | 51.13922 | 1.83676 | 31417 ft | 470 kts | 96° |
| 2026-05-07 21:28 | 51.13659 | 1.88795 | 31805 ft | 469 kts | 96° |
| 2026-05-07 21:28 | 51.13392 | 1.93971 | 32183 ft | 469 kts | 96° |
| 2026-05-07 21:28 | 51.13123 | 1.99142 | 32559 ft | 469 kts | 96° |
| 2026-05-07 21:28 | 51.12854 | 2.04306 | 32940 ft | 468 kts | 96° |
| 2026-05-07 21:29 | 51.12582 | 2.09472 | 33334 ft | 468 kts | 96° |
| 2026-05-07 21:29 | 51.12307 | 2.14627 | 33716 ft | 467 kts | 96° |
| 2026-05-07 21:29 | 51.12027 | 2.19782 | 34108 ft | 467 kts | 96° |
| 2026-05-07 21:29 | 51.11744 | 2.24927 | 34428 ft | 467 kts | 96° |
| 2026-05-07 21:30 | 51.11462 | 2.30078 | 34741 ft | 467 kts | 96° |
| 2026-05-07 21:30 | 51.11179 | 2.35222 | 35055 ft | 467 kts | 96° |
| 2026-05-07 21:30 | 51.10896 | 2.40361 | 35350 ft | 467 kts | 96° |
| 2026-05-07 21:30 | 51.10608 | 2.45511 | 35640 ft | 467 kts | 96° |
| 2026-05-07 21:31 | 51.10313 | 2.50655 | 35922 ft | 467 kts | 96° |
| 2026-05-07 21:31 | 51.10015 | 2.55799 | 36199 ft | 467 kts | 96° |
| 2026-05-07 21:31 | 51.09716 | 2.60938 | 36467 ft | 467 kts | 96° |
| 2026-05-07 21:31 | 51.09269 | 2.66044 | 36729 ft | 465 kts | 104° |
| 2026-05-07 21:32 | 51.08426 | 2.70992 | 36976 ft | 465 kts | 108° |
| 2026-05-07 21:32 | 51.07521 | 2.75944 | 37083 ft | 465 kts | 108° |
| 2026-05-07 21:32 | 51.05726 | 2.85813 | 37106 ft | 465 kts | 108° |
| 2026-05-07 21:33 | 51.03934 | 2.95676 | 37105 ft | 465 kts | 108° |
| 2026-05-07 21:33 | 51.02133 | 3.05536 | 37098 ft | 465 kts | 108° |
| 2026-05-07 21:34 | 51.00320 | 3.15378 | 37097 ft | 464 kts | 108° |
| 2026-05-07 21:34 | 50.98499 | 3.25221 | 37092 ft | 464 kts | 108° |
| 2026-05-07 21:35 | 50.96668 | 3.35043 | 37074 ft | 464 kts | 108° |
| 2026-05-07 21:35 | 50.94845 | 3.44788 | 37073 ft | 464 kts | 108° |
| 2026-05-07 21:36 | 50.92994 | 3.54602 | 37075 ft | 464 kts | 108° |
| 2026-05-07 21:36 | 50.91140 | 3.64414 | 37083 ft | 465 kts | 108° |
| 2026-05-07 21:37 | 50.89279 | 3.74218 | 37080 ft | 465 kts | 108° |
| 2026-05-07 21:37 | 50.87407 | 3.84014 | 37084 ft | 465 kts | 108° |
| 2026-05-07 21:38 | 50.85521 | 3.93803 | 37090 ft | 465 kts | 109° |
| 2026-05-07 21:38 | 50.83625 | 4.03582 | 37095 ft | 465 kts | 109° |
| 2026-05-07 21:39 | 50.81733 | 4.13352 | 37101 ft | 465 kts | 109° |
| 2026-05-07 21:39 | 50.79831 | 4.23131 | 37092 ft | 465 kts | 109° |
| 2026-05-07 21:40 | 50.77921 | 4.32876 | 37100 ft | 465 kts | 109° |
| 2026-05-07 21:40 | 50.76006 | 4.42557 | 37103 ft | 465 kts | 109° |
| 2026-05-07 21:41 | 50.74069 | 4.52288 | 37102 ft | 465 kts | 109° |
| 2026-05-07 21:41 | 50.72130 | 4.62012 | 37101 ft | 464 kts | 109° |
| 2026-05-07 21:42 | 50.70185 | 4.71737 | 37081 ft | 464 kts | 109° |
| 2026-05-07 21:42 | 50.68238 | 4.81446 | 37080 ft | 464 kts | 109° |
| 2026-05-07 21:43 | 50.66272 | 4.91145 | 37079 ft | 464 kts | 109° |
| 2026-05-07 21:43 | 50.64297 | 5.00836 | 37080 ft | 464 kts | 109° |
| 2026-05-07 21:44 | 50.62308 | 5.10516 | 37082 ft | 464 kts | 109° |
| 2026-05-07 21:44 | 50.60307 | 5.20177 | 37074 ft | 465 kts | 110° |
| 2026-05-07 21:45 | 50.58298 | 5.29846 | 37074 ft | 465 kts | 110° |
| 2026-05-07 21:45 | 50.56286 | 5.39505 | 37073 ft | 465 kts | 110° |
| 2026-05-07 21:46 | 50.54262 | 5.49156 | 37076 ft | 465 kts | 110° |
| 2026-05-07 21:46 | 50.52221 | 5.58799 | 37069 ft | 465 kts | 110° |
| 2026-05-07 21:47 | 50.50152 | 5.68420 | 37057 ft | 465 kts | 111° |
| 2026-05-07 21:47 | 50.48002 | 5.77996 | 37070 ft | 465 kts | 111° |
| 2026-05-07 21:48 | 50.45842 | 5.87495 | 37075 ft | 465 kts | 111° |
| 2026-05-07 21:48 | 50.43668 | 5.97053 | 37077 ft | 465 kts | 111° |
| 2026-05-07 21:49 | 50.41498 | 6.06606 | 37069 ft | 465 kts | 111° |
| 2026-05-07 21:49 | 50.39328 | 6.16156 | 37074 ft | 465 kts | 111° |
| 2026-05-07 21:50 | 50.37142 | 6.25704 | 37077 ft | 465 kts | 111° |
| 2026-05-07 21:50 | 50.34940 | 6.35236 | 37078 ft | 466 kts | 111° |
| 2026-05-07 21:51 | 50.32735 | 6.44763 | 37076 ft | 466 kts | 111° |
| 2026-05-07 21:51 | 50.30519 | 6.54288 | 37069 ft | 466 kts | 111° |
| 2026-05-07 21:52 | 50.28302 | 6.63802 | 37071 ft | 466 kts | 111° |
| 2026-05-07 21:52 | 50.26078 | 6.73301 | 37067 ft | 466 kts | 111° |
| 2026-05-07 21:53 | 50.23836 | 6.82806 | 37075 ft | 466 kts | 112° |
| 2026-05-07 21:53 | 50.21588 | 6.92283 | 37065 ft | 466 kts | 112° |
| 2026-05-07 21:54 | 50.19335 | 7.01768 | 37056 ft | 466 kts | 112° |
| 2026-05-07 21:54 | 50.17083 | 7.11238 | 37070 ft | 466 kts | 112° |
| 2026-05-07 21:55 | 50.14818 | 7.20711 | 37065 ft | 466 kts | 112° |
| 2026-05-07 21:55 | 50.12543 | 7.30168 | 37068 ft | 466 kts | 112° |
| 2026-05-07 21:56 | 50.10255 | 7.39620 | 37069 ft | 466 kts | 112° |
| 2026-05-07 21:56 | 50.07961 | 7.49061 | 37075 ft | 466 kts | 112° |
| 2026-05-07 21:57 | 50.05680 | 7.58433 | 37077 ft | 466 kts | 112° |
| 2026-05-07 21:57 | 50.03375 | 7.67858 | 37078 ft | 466 kts | 112° |
| 2026-05-07 21:58 | 50.01057 | 7.77279 | 37076 ft | 466 kts | 112° |
| 2026-05-07 21:58 | 49.98746 | 7.86640 | 37081 ft | 466 kts | 112° |
| 2026-05-07 21:59 | 49.96417 | 7.96044 | 37081 ft | 466 kts | 112° |
| 2026-05-07 21:59 | 49.94070 | 8.05428 | 37082 ft | 466 kts | 112° |
| 2026-05-07 22:00 | 49.91722 | 8.14809 | 37086 ft | 466 kts | 112° |
| 2026-05-07 22:00 | 49.89369 | 8.24183 | 37063 ft | 466 kts | 112° |
| 2026-05-07 22:01 | 49.87003 | 8.33557 | 37067 ft | 467 kts | 113° |
| 2026-05-07 22:01 | 49.84302 | 8.42668 | 37066 ft | 464 kts | 124° |
| 2026-05-07 22:02 | 49.80405 | 8.50598 | 37073 ft | 462 kts | 130° |
| 2026-05-07 22:02 | 49.76396 | 8.58388 | 37079 ft | 463 kts | 130° |
| 2026-05-07 22:03 | 49.72386 | 8.66173 | 37079 ft | 463 kts | 130° |
| 2026-05-07 22:03 | 49.68366 | 8.73951 | 37082 ft | 463 kts | 131° |
| 2026-05-07 22:04 | 49.64332 | 8.81704 | 37084 ft | 463 kts | 131° |
| 2026-05-07 22:04 | 49.60294 | 8.89445 | 37072 ft | 463 kts | 131° |
| 2026-05-07 22:05 | 49.56255 | 8.97177 | 37074 ft | 464 kts | 131° |
| 2026-05-07 22:05 | 49.52204 | 9.04909 | 37068 ft | 464 kts | 131° |
| 2026-05-07 22:06 | 49.48142 | 9.12613 | 37069 ft | 464 kts | 131° |
| 2026-05-07 22:06 | 49.44411 | 9.20714 | 37071 ft | 466 kts | 125° |
| 2026-05-07 22:07 | 49.40871 | 9.29054 | 37074 ft | 466 kts | 125° |
| 2026-05-07 22:07 | 49.37319 | 9.37363 | 37081 ft | 466 kts | 125° |
| 2026-05-07 22:08 | 49.33762 | 9.45668 | 37065 ft | 466 kts | 125° |
| 2026-05-07 22:08 | 49.30219 | 9.53921 | 37070 ft | 467 kts | 125° |
| 2026-05-07 22:09 | 49.26644 | 9.62231 | 37066 ft | 467 kts | 126° |
| 2026-05-07 22:09 | 49.23061 | 9.70521 | 37075 ft | 467 kts | 126° |
| 2026-05-07 22:10 | 49.19464 | 9.78799 | 37097 ft | 467 kts | 126° |
| 2026-05-07 22:10 | 49.15857 | 9.87083 | 37096 ft | 468 kts | 126° |
| 2026-05-07 22:11 | 49.12253 | 9.95358 | 37097 ft | 468 kts | 126° |
| 2026-05-07 22:11 | 49.08638 | 10.03625 | 37078 ft | 468 kts | 126° |
| 2026-05-07 22:12 | 49.04656 | 10.11422 | 37086 ft | 465 kts | 138° |
| 2026-05-07 22:12 | 49.00066 | 10.18371 | 37086 ft | 465 kts | 138° |
| 2026-05-07 22:13 | 48.95483 | 10.25328 | 37106 ft | 466 kts | 138° |
| 2026-05-07 22:13 | 48.90891 | 10.32279 | 37110 ft | 466 kts | 138° |
| 2026-05-07 22:14 | 48.87078 | 10.38044 | 37117 ft | 466 kts | 138° |
| 2026-05-07 22:14 | 48.82475 | 10.44984 | 37108 ft | 466 kts | 138° |
| 2026-05-07 22:15 | 48.77868 | 10.51903 | 37105 ft | 466 kts | 138° |
| 2026-05-07 22:15 | 48.73251 | 10.58821 | 37103 ft | 467 kts | 138° |
| 2026-05-07 22:16 | 48.68629 | 10.65734 | 37107 ft | 467 kts | 138° |
| 2026-05-07 22:16 | 48.63995 | 10.72635 | 37105 ft | 467 kts | 138° |
| 2026-05-07 22:17 | 48.59655 | 10.79966 | 37107 ft | 472 kts | 126° |
| 2026-05-07 22:17 | 48.56859 | 10.88934 | 37096 ft | 475 kts | 110° |
| 2026-05-07 22:18 | 48.53631 | 11.03102 | 37082 ft | 476 kts | 110° |
| 2026-05-07 22:19 | 48.51455 | 11.12544 | 37089 ft | 477 kts | 111° |
| 2026-05-07 22:19 | 48.49270 | 11.21988 | 37091 ft | 477 kts | 111° |
| 2026-05-07 22:20 | 48.47074 | 11.31441 | 37081 ft | 477 kts | 111° |
| 2026-05-07 22:20 | 48.44869 | 11.40875 | 37088 ft | 478 kts | 111° |
| 2026-05-07 22:21 | 48.42657 | 11.50308 | 37093 ft | 478 kts | 111° |
| 2026-05-07 22:21 | 48.40439 | 11.59742 | 37100 ft | 478 kts | 111° |
| 2026-05-07 22:22 | 48.38227 | 11.69103 | 37101 ft | 478 kts | 111° |
| 2026-05-07 22:22 | 48.35987 | 11.78521 | 37103 ft | 478 kts | 111° |
| 2026-05-07 22:23 | 48.33743 | 11.87925 | 37104 ft | 478 kts | 111° |
| 2026-05-07 22:23 | 48.31490 | 11.97327 | 37104 ft | 478 kts | 111° |
| 2026-05-07 22:24 | 48.29231 | 12.06728 | 37103 ft | 478 kts | 111° |
| 2026-05-07 22:24 | 48.26968 | 12.16118 | 37097 ft | 478 kts | 112° |
| 2026-05-07 22:25 | 48.24695 | 12.25494 | 37095 ft | 478 kts | 112° |
| 2026-05-07 22:25 | 48.22407 | 12.34869 | 37097 ft | 478 kts | 112° |
| 2026-05-07 22:26 | 48.20115 | 12.44220 | 37100 ft | 478 kts | 112° |
| 2026-05-07 22:26 | 48.17818 | 12.53576 | 37100 ft | 478 kts | 112° |
| 2026-05-07 22:27 | 48.15514 | 12.62915 | 37103 ft | 478 kts | 112° |
| 2026-05-07 22:27 | 48.13149 | 12.72215 | 37103 ft | 477 kts | 114° |
| 2026-05-07 22:28 | 48.10475 | 12.81292 | 37103 ft | 476 kts | 117° |
| 2026-05-07 22:28 | 48.07642 | 12.90251 | 37088 ft | 476 kts | 117° |
| 2026-05-07 22:29 | 48.04840 | 12.99228 | 37091 ft | 477 kts | 117° |
| 2026-05-07 22:29 | 48.02095 | 13.08261 | 37094 ft | 477 kts | 116° |
| 2026-05-07 22:30 | 47.99353 | 13.17288 | 37098 ft | 477 kts | 117° |
| 2026-05-07 22:30 | 47.96592 | 13.26292 | 37094 ft | 477 kts | 117° |
| 2026-05-07 22:31 | 47.93815 | 13.35286 | 37101 ft | 477 kts | 117° |
| 2026-05-07 22:31 | 47.91048 | 13.44191 | 37102 ft | 477 kts | 117° |
| 2026-05-07 22:32 | 47.88254 | 13.53160 | 37106 ft | 477 kts | 117° |
| 2026-05-07 22:32 | 47.85464 | 13.62112 | 37107 ft | 477 kts | 117° |
| 2026-05-07 22:33 | 47.82664 | 13.71059 | 37075 ft | 477 kts | 117° |
| 2026-05-07 22:33 | 47.79859 | 13.79988 | 37088 ft | 477 kts | 117° |
| 2026-05-07 22:34 | 47.77041 | 13.88928 | 37100 ft | 477 kts | 118° |
| 2026-05-07 22:34 | 47.74213 | 13.97858 | 37098 ft | 478 kts | 118° |
| 2026-05-07 22:35 | 47.71376 | 14.06779 | 37083 ft | 478 kts | 118° |
| 2026-05-07 22:35 | 47.68538 | 14.15694 | 37110 ft | 478 kts | 118° |
| 2026-05-07 22:36 | 47.65692 | 14.24586 | 37109 ft | 477 kts | 118° |
| 2026-05-07 22:36 | 47.62842 | 14.33464 | 37102 ft | 477 kts | 118° |
| 2026-05-07 22:37 | 47.59991 | 14.42344 | 37095 ft | 477 kts | 118° |
| 2026-05-07 22:37 | 47.57148 | 14.51151 | 37097 ft | 477 kts | 118° |
| 2026-05-07 22:38 | 47.54276 | 14.60001 | 37097 ft | 478 kts | 118° |
| 2026-05-07 22:38 | 47.51393 | 14.68855 | 37095 ft | 477 kts | 118° |
| 2026-05-07 22:39 | 47.48505 | 14.77695 | 37085 ft | 477 kts | 119° |
| 2026-05-07 22:39 | 47.45586 | 14.86582 | 37083 ft | 477 kts | 119° |
| 2026-05-07 22:40 | 47.42683 | 14.95411 | 37087 ft | 478 kts | 119° |
| 2026-05-07 22:40 | 47.39801 | 15.04178 | 37095 ft | 478 kts | 119° |
| 2026-05-07 22:41 | 47.36889 | 15.12983 | 37070 ft | 478 kts | 120° |
| 2026-05-07 22:41 | 47.33961 | 15.21794 | 37082 ft | 478 kts | 120° |
| 2026-05-07 22:42 | 47.31028 | 15.30577 | 37082 ft | 478 kts | 120° |
| 2026-05-07 22:42 | 47.28085 | 15.39356 | 37088 ft | 478 kts | 120° |
| 2026-05-07 22:43 | 47.25143 | 15.48131 | 37078 ft | 478 kts | 120° |
| 2026-05-07 22:43 | 47.22197 | 15.56904 | 37071 ft | 478 kts | 120° |
| 2026-05-07 22:44 | 47.19233 | 15.65657 | 37077 ft | 478 kts | 120° |
| 2026-05-07 22:44 | 47.16259 | 15.74402 | 37072 ft | 478 kts | 120° |
| 2026-05-07 22:45 | 47.13286 | 15.83146 | 37068 ft | 478 kts | 120° |
| 2026-05-07 22:45 | 47.10311 | 15.91878 | 37038 ft | 478 kts | 121° |
| 2026-05-07 22:46 | 47.07331 | 16.00614 | 37063 ft | 479 kts | 121° |
| 2026-05-07 22:46 | 47.04336 | 16.09328 | 37062 ft | 479 kts | 121° |
| 2026-05-07 22:47 | 47.01325 | 16.18039 | 37056 ft | 479 kts | 121° |
| 2026-05-07 22:47 | 46.98273 | 16.26711 | 37055 ft | 478 kts | 122° |
| 2026-05-07 22:48 | 46.95069 | 16.35230 | 37059 ft | 477 kts | 123° |
| 2026-05-07 22:48 | 46.91834 | 16.43633 | 37062 ft | 477 kts | 123° |
| 2026-05-07 22:49 | 46.88595 | 16.52112 | 37060 ft | 478 kts | 123° |
| 2026-05-07 22:49 | 46.85399 | 16.60539 | 37046 ft | 477 kts | 123° |
| 2026-05-07 22:50 | 46.82177 | 16.69019 | 37051 ft | 477 kts | 123° |
| 2026-05-07 22:50 | 46.78954 | 16.77485 | 37054 ft | 477 kts | 123° |
| 2026-05-07 22:51 | 46.75713 | 16.85938 | 37033 ft | 477 kts | 123° |
| 2026-05-07 22:51 | 46.72463 | 16.94368 | 37026 ft | 477 kts | 124° |
| 2026-05-07 22:52 | 46.69215 | 17.02786 | 37035 ft | 477 kts | 124° |
| 2026-05-07 22:52 | 46.65969 | 17.11208 | 37040 ft | 477 kts | 124° |
| 2026-05-07 22:53 | 46.62713 | 17.19615 | 37043 ft | 477 kts | 124° |
| 2026-05-07 22:53 | 46.59444 | 17.27993 | 37025 ft | 476 kts | 124° |
| 2026-05-07 22:54 | 46.56165 | 17.36365 | 37033 ft | 476 kts | 124° |
| 2026-05-07 22:54 | 46.52890 | 17.44720 | 37038 ft | 476 kts | 124° |
| 2026-05-07 22:55 | 46.49613 | 17.53067 | 37042 ft | 476 kts | 124° |
| 2026-05-07 22:55 | 46.46332 | 17.61404 | 37030 ft | 475 kts | 124° |
| 2026-05-07 22:56 | 46.43046 | 17.69714 | 37037 ft | 475 kts | 124° |
| 2026-05-07 22:56 | 46.39782 | 17.77953 | 37022 ft | 475 kts | 124° |
| 2026-05-07 22:57 | 46.36486 | 17.86238 | 37028 ft | 475 kts | 124° |
| 2026-05-07 22:57 | 46.33179 | 17.94518 | 37016 ft | 475 kts | 124° |
| 2026-05-07 22:58 | 46.29864 | 18.02795 | 37028 ft | 475 kts | 124° |
| 2026-05-07 22:58 | 46.26547 | 18.11060 | 37030 ft | 475 kts | 124° |
| 2026-05-07 22:59 | 46.23221 | 18.19307 | 37038 ft | 475 kts | 124° |
| 2026-05-07 22:59 | 46.19898 | 18.27549 | 37033 ft | 475 kts | 125° |
| 2026-05-07 23:00 | 46.16570 | 18.35780 | 37039 ft | 475 kts | 125° |
| 2026-05-07 23:00 | 46.13234 | 18.43995 | 37044 ft | 474 kts | 125° |
| 2026-05-07 23:01 | 46.09891 | 18.52188 | 37047 ft | 474 kts | 125° |
| 2026-05-07 23:01 | 46.06546 | 18.60371 | 37022 ft | 474 kts | 125° |
| 2026-05-07 23:02 | 46.03228 | 18.68482 | 37020 ft | 474 kts | 125° |
| 2026-05-07 23:02 | 45.99876 | 18.76655 | 37029 ft | 474 kts | 125° |
| 2026-05-07 23:03 | 45.96508 | 18.84807 | 37035 ft | 474 kts | 125° |
| 2026-05-07 23:03 | 45.93067 | 18.92877 | 37013 ft | 471 kts | 131° |
| 2026-05-07 23:04 | 45.88892 | 19.00036 | 37027 ft | 467 kts | 136° |
| 2026-05-07 23:04 | 45.84651 | 19.07089 | 37033 ft | 467 kts | 136° |
| 2026-05-07 23:05 | 45.81128 | 19.12958 | 37041 ft | 467 kts | 136° |
| 2026-05-07 23:05 | 45.76887 | 19.20008 | 37026 ft | 467 kts | 136° |
| 2026-05-07 23:06 | 45.72639 | 19.27048 | 37017 ft | 467 kts | 136° |
| 2026-05-07 23:06 | 45.68379 | 19.34077 | 37027 ft | 468 kts | 136° |
| 2026-05-07 23:07 | 45.64106 | 19.41109 | 37032 ft | 469 kts | 136° |
| 2026-05-07 23:07 | 45.59830 | 19.48131 | 37042 ft | 469 kts | 136° |
| 2026-05-07 23:08 | 45.55548 | 19.55155 | 37040 ft | 469 kts | 136° |
| 2026-05-07 23:08 | 45.51258 | 19.62167 | 37042 ft | 469 kts | 136° |
| 2026-05-07 23:09 | 45.46959 | 19.69172 | 37042 ft | 469 kts | 136° |
| 2026-05-07 23:09 | 45.42660 | 19.76165 | 37035 ft | 470 kts | 136° |
| 2026-05-07 23:10 | 45.38348 | 19.83159 | 37026 ft | 470 kts | 136° |
| 2026-05-07 23:10 | 45.34025 | 19.90146 | 37033 ft | 471 kts | 136° |
| 2026-05-07 23:11 | 45.29469 | 19.96757 | 37032 ft | 466 kts | 143° |
| 2026-05-07 23:11 | 45.24657 | 20.02927 | 37040 ft | 466 kts | 143° |
| 2026-05-07 23:12 | 45.19848 | 20.09106 | 37022 ft | 467 kts | 143° |
| 2026-05-07 23:12 | 45.15031 | 20.15287 | 37018 ft | 467 kts | 143° |
| 2026-05-07 23:13 | 45.10202 | 20.21458 | 37024 ft | 468 kts | 143° |
| 2026-05-07 23:13 | 45.05358 | 20.27629 | 37031 ft | 469 kts | 143° |
| 2026-05-07 23:14 | 45.00506 | 20.33787 | 37023 ft | 469 kts | 143° |
| 2026-05-07 23:14 | 44.95639 | 20.39943 | 37062 ft | 469 kts | 143° |
| 2026-05-07 23:15 | 44.90773 | 20.46089 | 37038 ft | 470 kts | 143° |
| 2026-05-07 23:15 | 44.85907 | 20.52236 | 37044 ft | 470 kts | 143° |
| 2026-05-07 23:16 | 44.81071 | 20.58330 | 37038 ft | 470 kts | 143° |
| 2026-05-07 23:16 | 44.76194 | 20.64456 | 37043 ft | 470 kts | 143° |
| 2026-05-07 23:17 | 44.71316 | 20.70567 | 37049 ft | 470 kts | 143° |
| 2026-05-07 23:17 | 44.66431 | 20.76681 | 37051 ft | 470 kts | 144° |
| 2026-05-07 23:18 | 44.61543 | 20.82777 | 37014 ft | 470 kts | 143° |
| 2026-05-07 23:18 | 44.56642 | 20.88882 | 37027 ft | 472 kts | 143° |
| 2026-05-07 23:19 | 44.51727 | 20.94984 | 37036 ft | 473 kts | 144° |
| 2026-05-07 23:19 | 44.46795 | 21.01081 | 37041 ft | 473 kts | 144° |
| 2026-05-07 23:20 | 44.41868 | 21.07163 | 37038 ft | 473 kts | 143° |
| 2026-05-07 23:20 | 44.36932 | 21.13254 | 37029 ft | 473 kts | 143° |
| 2026-05-07 23:21 | 44.31987 | 21.19347 | 37037 ft | 474 kts | 143° |
| 2026-05-07 23:21 | 44.27032 | 21.25424 | 37046 ft | 474 kts | 144° |
| 2026-05-07 23:22 | 44.22065 | 21.31491 | 37051 ft | 475 kts | 143° |
| 2026-05-07 23:22 | 44.17098 | 21.37562 | 37058 ft | 475 kts | 143° |
| 2026-05-07 23:23 | 44.12126 | 21.43624 | 37072 ft | 475 kts | 143° |
| 2026-05-07 23:23 | 44.07147 | 21.49676 | 37049 ft | 475 kts | 144° |
| 2026-05-07 23:24 | 44.02194 | 21.55671 | 37040 ft | 476 kts | 144° |
| 2026-05-07 23:24 | 43.97199 | 21.61708 | 37056 ft | 476 kts | 144° |
| 2026-05-07 23:25 | 43.92206 | 21.67739 | 37068 ft | 476 kts | 144° |
| 2026-05-07 23:25 | 43.87212 | 21.73765 | 37070 ft | 476 kts | 144° |
| 2026-05-07 23:26 | 43.82209 | 21.79777 | 37053 ft | 476 kts | 144° |
| 2026-05-07 23:26 | 43.77194 | 21.85785 | 37063 ft | 477 kts | 144° |
| 2026-05-07 23:27 | 43.69657 | 21.94795 | 37071 ft | 478 kts | 144° |
| 2026-05-07 23:27 | 43.64623 | 22.00788 | 37080 ft | 478 kts | 144° |
| 2026-05-07 23:28 | 43.59582 | 22.06769 | 37080 ft | 478 kts | 144° |
| 2026-05-07 23:28 | 43.54544 | 22.12748 | 37072 ft | 478 kts | 144° |
| 2026-05-07 23:29 | 43.49510 | 22.18719 | 37089 ft | 478 kts | 144° |
| 2026-05-07 23:29 | 43.44468 | 22.24682 | 37084 ft | 477 kts | 144° |
| 2026-05-07 23:30 | 43.39426 | 22.30624 | 37095 ft | 478 kts | 144° |
| 2026-05-07 23:30 | 43.34368 | 22.36568 | 37089 ft | 479 kts | 144° |
| 2026-05-07 23:31 | 43.29300 | 22.42506 | 37079 ft | 479 kts | 144° |
| 2026-05-07 23:31 | 43.24222 | 22.48435 | 37088 ft | 480 kts | 144° |
| 2026-05-07 23:32 | 43.19135 | 22.54376 | 37097 ft | 480 kts | 144° |
| 2026-05-07 23:32 | 43.14079 | 22.60276 | 37099 ft | 481 kts | 144° |
| 2026-05-07 23:33 | 43.08975 | 22.66213 | 37109 ft | 482 kts | 144° |
| 2026-05-07 23:33 | 43.03865 | 22.72146 | 37104 ft | 483 kts | 145° |
| 2026-05-07 23:34 | 42.98726 | 22.78079 | 37109 ft | 484 kts | 145° |
| 2026-05-07 23:34 | 42.93644 | 22.84143 | 37117 ft | 487 kts | 142° |
| 2026-05-07 23:35 | 42.88732 | 22.90526 | 37120 ft | 488 kts | 140° |
| 2026-05-07 23:35 | 42.83847 | 22.96955 | 37115 ft | 489 kts | 141° |
| 2026-05-07 23:36 | 42.78895 | 23.03310 | 37099 ft | 489 kts | 142° |
| 2026-05-07 23:36 | 42.73904 | 23.09622 | 37110 ft | 490 kts | 142° |
| 2026-05-07 23:37 | 42.68903 | 23.15932 | 37119 ft | 491 kts | 142° |
| 2026-05-07 23:37 | 42.63897 | 23.22260 | 37116 ft | 492 kts | 142° |
| 2026-05-07 23:38 | 42.58879 | 23.28610 | 37119 ft | 493 kts | 142° |
| 2026-05-07 23:38 | 42.53861 | 23.34936 | 37104 ft | 494 kts | 142° |
| 2026-05-07 23:39 | 42.48816 | 23.41271 | 37136 ft | 498 kts | 142° |
| 2026-05-07 23:39 | 42.43736 | 23.47653 | 37132 ft | 499 kts | 142° |
| 2026-05-07 23:40 | 42.38637 | 23.54038 | 37130 ft | 500 kts | 142° |
| 2026-05-07 23:40 | 42.33526 | 23.60407 | 37132 ft | 500 kts | 142° |
| 2026-05-07 23:41 | 42.28410 | 23.66767 | 37129 ft | 500 kts | 142° |
| 2026-05-07 23:41 | 42.23259 | 23.73071 | 37134 ft | 499 kts | 143° |
| 2026-05-07 23:42 | 42.18084 | 23.79326 | 37114 ft | 500 kts | 143° |
| 2026-05-07 23:42 | 42.12902 | 23.85576 | 37122 ft | 501 kts | 143° |
| 2026-05-07 23:43 | 42.07716 | 23.91859 | 37118 ft | 502 kts | 143° |
| 2026-05-07 23:43 | 42.02532 | 23.98135 | 37104 ft | 502 kts | 143° |
| 2026-05-07 23:44 | 41.97325 | 24.04421 | 37104 ft | 503 kts | 143° |
| 2026-05-07 23:44 | 41.92101 | 24.10701 | 37104 ft | 505 kts | 143° |
| 2026-05-07 23:45 | 41.86863 | 24.16984 | 37105 ft | 505 kts | 143° |
| 2026-05-07 23:45 | 41.81613 | 24.23260 | 37109 ft | 506 kts | 143° |
| 2026-05-07 23:46 | 41.76351 | 24.29534 | 37097 ft | 507 kts | 143° |
| 2026-05-07 23:46 | 41.71078 | 24.35809 | 37106 ft | 508 kts | 143° |
| 2026-05-07 23:47 | 41.65791 | 24.42105 | 37113 ft | 509 kts | 143° |
| 2026-05-07 23:47 | 41.60516 | 24.48361 | 37116 ft | 511 kts | 143° |
| 2026-05-07 23:48 | 41.55189 | 24.54665 | 37118 ft | 512 kts | 143° |
| 2026-05-07 23:48 | 41.49856 | 24.60968 | 37092 ft | 512 kts | 144° |
| 2026-05-07 23:49 | 41.44507 | 24.67277 | 37104 ft | 515 kts | 144° |
| 2026-05-07 23:49 | 41.39179 | 24.73668 | 37098 ft | 517 kts | 142° |
| 2026-05-07 23:50 | 41.34044 | 24.80399 | 37103 ft | 519 kts | 139° |
| 2026-05-07 23:50 | 41.28978 | 24.87231 | 37099 ft | 519 kts | 140° |
| 2026-05-07 23:51 | 41.23859 | 24.93989 | 37111 ft | 519 kts | 140° |
| 2026-05-07 23:51 | 41.18679 | 25.00666 | 37093 ft | 519 kts | 141° |
| 2026-05-07 23:52 | 41.13490 | 25.07327 | 37086 ft | 519 kts | 141° |
| 2026-05-07 23:52 | 41.08305 | 25.14028 | 37088 ft | 521 kts | 140° |
| 2026-05-07 23:53 | 41.03993 | 25.19604 | 37089 ft | 522 kts | 141° |
| 2026-05-07 23:53 | 40.98780 | 25.26313 | 37095 ft | 523 kts | 141° |
| 2026-05-07 23:54 | 40.93560 | 25.33013 | 37081 ft | 523 kts | 141° |
| 2026-05-07 23:54 | 40.88329 | 25.39710 | 37086 ft | 524 kts | 140° |
| 2026-05-07 23:55 | 40.83091 | 25.46412 | 37093 ft | 525 kts | 140° |
| 2026-05-07 23:55 | 40.77839 | 25.53116 | 37088 ft | 525 kts | 140° |
| 2026-05-07 23:56 | 40.72581 | 25.59798 | 37094 ft | 525 kts | 141° |
| 2026-05-07 23:56 | 40.67309 | 25.66478 | 37105 ft | 526 kts | 140° |
| 2026-05-07 23:57 | 40.62037 | 25.73161 | 37090 ft | 526 kts | 140° |
| 2026-05-07 23:57 | 40.56752 | 25.79841 | 37091 ft | 527 kts | 140° |
| 2026-05-07 23:58 | 40.51457 | 25.86508 | 37098 ft | 527 kts | 140° |
| 2026-05-07 23:58 | 40.46474 | 25.93614 | 37100 ft | 530 kts | 134° |
| 2026-05-07 23:59 | 40.41614 | 26.00892 | 37098 ft | 530 kts | 134° |
| 2026-05-07 23:59 | 40.36777 | 26.08111 | 37088 ft | 530 kts | 134° |
| 2026-05-08 00:00 | 40.31902 | 26.15363 | 37099 ft | 530 kts | 134° |
| 2026-05-08 00:00 | 40.27021 | 26.22593 | 37105 ft | 530 kts | 134° |
| 2026-05-08 00:01 | 40.22141 | 26.29821 | 37127 ft | 530 kts | 133° |
| 2026-05-08 00:01 | 40.17262 | 26.37042 | 37127 ft | 530 kts | 134° |
| 2026-05-08 00:02 | 40.12353 | 26.44215 | 37126 ft | 529 kts | 135° |
| 2026-05-08 00:02 | 40.07183 | 26.51043 | 37117 ft | 528 kts | 139° |
| 2026-05-08 00:03 | 40.01865 | 26.57633 | 37105 ft | 527 kts | 139° |
| 2026-05-08 00:03 | 39.96570 | 26.64262 | 37119 ft | 528 kts | 137° |
| 2026-05-08 00:04 | 39.91326 | 26.70970 | 37113 ft | 528 kts | 137° |
| 2026-05-08 00:04 | 39.86098 | 26.77703 | 37123 ft | 529 kts | 137° |
| 2026-05-08 00:05 | 39.80847 | 26.84409 | 37125 ft | 529 kts | 138° |
| 2026-05-08 00:05 | 39.75566 | 26.91077 | 37111 ft | 529 kts | 138° |
| 2026-05-08 00:06 | 39.70264 | 26.97624 | 37116 ft | 529 kts | 139° |
| 2026-05-08 00:06 | 39.64887 | 27.04150 | 37119 ft | 530 kts | 139° |
| 2026-05-08 00:07 | 39.59510 | 27.10696 | 37122 ft | 530 kts | 139° |
| 2026-05-08 00:07 | 39.54146 | 27.17255 | 37126 ft | 530 kts | 139° |
| 2026-05-08 00:08 | 39.48903 | 27.23978 | 37138 ft | 531 kts | 130° |
| 2026-05-08 00:08 | 39.44193 | 27.31368 | 37138 ft | 532 kts | 129° |
| 2026-05-08 00:09 | 39.39485 | 27.38749 | 37140 ft | 532 kts | 129° |
| 2026-05-08 00:09 | 39.34756 | 27.46126 | 37147 ft | 533 kts | 129° |
| 2026-05-08 00:10 | 39.30023 | 27.53495 | 37157 ft | 533 kts | 129° |
| 2026-05-08 00:10 | 39.25289 | 27.60852 | 37152 ft | 533 kts | 129° |
| 2026-05-08 00:11 | 39.20549 | 27.68197 | 37148 ft | 533 kts | 129° |
| 2026-05-08 00:11 | 39.15807 | 27.75540 | 37153 ft | 532 kts | 129° |
| 2026-05-08 00:12 | 39.11063 | 27.82865 | 37141 ft | 532 kts | 129° |
| 2026-05-08 00:12 | 39.06309 | 27.90179 | 37155 ft | 533 kts | 129° |
| 2026-05-08 00:13 | 39.01552 | 27.97480 | 37155 ft | 533 kts | 129° |
| 2026-05-08 00:13 | 38.96826 | 28.04728 | 37150 ft | 532 kts | 129° |
| 2026-05-08 00:14 | 38.92029 | 28.12064 | 37167 ft | 532 kts | 129° |
| 2026-05-08 00:14 | 38.87285 | 28.19286 | 37171 ft | 533 kts | 129° |
| 2026-05-08 00:15 | 38.82512 | 28.26546 | 37171 ft | 532 kts | 129° |
| 2026-05-08 00:15 | 38.77737 | 28.33798 | 37159 ft | 532 kts | 129° |
| 2026-05-08 00:16 | 38.72967 | 28.41035 | 37182 ft | 532 kts | 129° |
| 2026-05-08 00:16 | 38.68182 | 28.48275 | 37188 ft | 532 kts | 129° |
| 2026-05-08 00:17 | 38.63403 | 28.55490 | 37171 ft | 532 kts | 129° |
| 2026-05-08 00:17 | 38.58497 | 28.62561 | 37171 ft | 532 kts | 137° |
| 2026-05-08 00:18 | 38.52635 | 28.68285 | 37186 ft | 531 kts | 147° |
| 2026-05-08 00:18 | 38.46582 | 28.73699 | 37158 ft | 532 kts | 146° |
| 2026-05-08 00:19 | 38.40533 | 28.79129 | 37168 ft | 532 kts | 146° |
| 2026-05-08 00:19 | 38.34466 | 28.84542 | 37170 ft | 532 kts | 146° |
| 2026-05-08 00:20 | 38.28398 | 28.89943 | 37183 ft | 532 kts | 146° |
| 2026-05-08 00:20 | 38.22318 | 28.95340 | 37179 ft | 533 kts | 146° |
| 2026-05-08 00:21 | 38.16240 | 29.00727 | 37179 ft | 533 kts | 146° |
| 2026-05-08 00:21 | 38.10153 | 29.06112 | 37185 ft | 533 kts | 146° |
| 2026-05-08 00:22 | 38.04056 | 29.11486 | 37184 ft | 533 kts | 146° |
| 2026-05-08 00:22 | 37.97963 | 29.16850 | 37193 ft | 533 kts | 146° |
| 2026-05-08 00:23 | 37.91870 | 29.22209 | 37169 ft | 533 kts | 146° |
| 2026-05-08 00:23 | 37.85808 | 29.27529 | 37194 ft | 534 kts | 146° |
| 2026-05-08 00:24 | 37.79699 | 29.32884 | 37203 ft | 535 kts | 146° |
| 2026-05-08 00:24 | 37.73579 | 29.38230 | 37207 ft | 535 kts | 146° |
| 2026-05-08 00:25 | 37.67454 | 29.43572 | 37195 ft | 535 kts | 146° |
| 2026-05-08 00:25 | 37.61331 | 29.48909 | 37202 ft | 535 kts | 146° |
| 2026-05-08 00:26 | 37.55191 | 29.54245 | 37221 ft | 535 kts | 145° |
| 2026-05-08 00:26 | 37.49051 | 29.59573 | 37219 ft | 536 kts | 146° |
| 2026-05-08 00:27 | 37.42896 | 29.64894 | 37219 ft | 536 kts | 145° |
| 2026-05-08 00:27 | 37.36741 | 29.70205 | 37211 ft | 537 kts | 146° |
| 2026-05-08 00:28 | 37.30580 | 29.75509 | 37218 ft | 537 kts | 146° |
| 2026-05-08 00:28 | 37.24417 | 29.80818 | 37222 ft | 537 kts | 146° |
| 2026-05-08 00:29 | 37.18256 | 29.86126 | 37230 ft | 537 kts | 145° |
| 2026-05-08 00:29 | 37.12088 | 29.91424 | 37224 ft | 537 kts | 145° |
| 2026-05-08 00:30 | 37.05916 | 29.96715 | 37209 ft | 538 kts | 145° |
| 2026-05-08 00:30 | 36.99733 | 30.02007 | 37218 ft | 538 kts | 145° |
| 2026-05-08 00:31 | 36.93550 | 30.07290 | 37205 ft | 539 kts | 145° |
| 2026-05-08 00:31 | 36.87355 | 30.12564 | 37220 ft | 539 kts | 145° |
| 2026-05-08 00:32 | 36.81165 | 30.17833 | 37195 ft | 538 kts | 145° |
| 2026-05-08 00:32 | 36.74976 | 30.23086 | 37192 ft | 538 kts | 145° |
| 2026-05-08 00:33 | 36.68820 | 30.28289 | 37191 ft | 538 kts | 145° |
| 2026-05-08 00:33 | 36.62627 | 30.33512 | 37171 ft | 538 kts | 145° |
| 2026-05-08 00:34 | 36.56429 | 30.38735 | 37177 ft | 538 kts | 145° |
| 2026-05-08 00:34 | 36.50239 | 30.43942 | 37159 ft | 536 kts | 145° |
| 2026-05-08 00:35 | 36.44058 | 30.49124 | 37164 ft | 536 kts | 145° |
| 2026-05-08 00:35 | 36.37874 | 30.54295 | 37152 ft | 535 kts | 145° |
| 2026-05-08 00:36 | 36.31707 | 30.59455 | 37147 ft | 535 kts | 145° |
| 2026-05-08 00:36 | 36.25541 | 30.64606 | 37118 ft | 535 kts | 145° |
| 2026-05-08 00:37 | 36.19358 | 30.69744 | 37116 ft | 536 kts | 145° |
| 2026-05-08 00:38 | 36.10073 | 30.77456 | 37115 ft | 536 kts | 146° |
| 2026-05-08 00:38 | 36.03352 | 30.81380 | 37117 ft | 534 kts | 166° |
| 2026-05-08 00:39 | 35.96114 | 30.82931 | 37111 ft | 524 kts | 183° |
| 2026-05-08 00:39 | 35.88821 | 30.83344 | 37114 ft | 525 kts | 182° |
| 2026-05-08 00:40 | 35.81566 | 30.83793 | 37111 ft | 526 kts | 182° |
| 2026-05-08 00:40 | 35.74263 | 30.84264 | 37101 ft | 528 kts | 179° |
| 2026-05-08 00:40 | 35.70631 | 30.85069 | 37108 ft | 534 kts | 166° |
| 2026-05-08 00:41 | 35.67166 | 30.86732 | 37108 ft | 536 kts | 152° |
| 2026-05-08 00:41 | 35.64039 | 30.89206 | 37111 ft | 533 kts | 138° |
| 2026-05-08 00:41 | 35.61408 | 30.92369 | 37105 ft | 526 kts | 124° |
| 2026-05-08 00:41 | 35.59348 | 30.96032 | 37120 ft | 516 kts | 111° |
| 2026-05-08 00:42 | 35.57894 | 31.00002 | 37131 ft | 503 kts | 99° |
| 2026-05-08 00:42 | 35.55809 | 31.08174 | 37121 ft | 501 kts | 98° |
| 2026-05-08 00:43 | 35.53725 | 31.16341 | 37125 ft | 502 kts | 98° |
| 2026-05-08 00:43 | 35.51986 | 31.23134 | 37121 ft | 502 kts | 99° |
| 2026-05-08 00:44 | 35.49894 | 31.31304 | 37143 ft | 502 kts | 99° |
| 2026-05-08 00:44 | 35.47803 | 31.39465 | 37131 ft | 501 kts | 99° |
| 2026-05-08 00:45 | 35.45702 | 31.47613 | 37130 ft | 501 kts | 99° |
| 2026-05-08 00:45 | 35.43601 | 31.55745 | 37156 ft | 500 kts | 101° |
| 2026-05-08 00:46 | 35.41498 | 31.63854 | 37140 ft | 498 kts | 101° |
| 2026-05-08 00:46 | 35.39401 | 31.71942 | 37144 ft | 497 kts | 101° |
| 2026-05-08 00:47 | 35.37302 | 31.80009 | 37153 ft | 497 kts | 101° |
| 2026-05-08 00:47 | 35.35196 | 31.88048 | 37154 ft | 495 kts | 102° |
| 2026-05-08 00:48 | 35.33089 | 31.96059 | 37145 ft | 493 kts | 102° |
| 2026-05-08 00:48 | 35.30985 | 32.04041 | 37143 ft | 492 kts | 102° |
| 2026-05-08 00:49 | 35.28911 | 32.11965 | 37148 ft | 491 kts | 103° |
| 2026-05-08 00:49 | 35.26834 | 32.19918 | 37149 ft | 490 kts | 103° |
| 2026-05-08 00:50 | 35.24757 | 32.27852 | 37150 ft | 489 kts | 103° |
| 2026-05-08 00:50 | 35.22676 | 32.35779 | 37148 ft | 489 kts | 103° |
| 2026-05-08 00:51 | 35.20591 | 32.43679 | 37146 ft | 488 kts | 104° |
| 2026-05-08 00:51 | 35.18499 | 32.51558 | 37143 ft | 486 kts | 104° |
| 2026-05-08 00:52 | 35.16408 | 32.59411 | 37140 ft | 486 kts | 104° |
| 2026-05-08 00:52 | 35.14321 | 32.67257 | 37142 ft | 485 kts | 104° |
| 2026-05-08 00:53 | 35.12255 | 32.75028 | 37139 ft | 484 kts | 104° |
| 2026-05-08 00:53 | 35.10172 | 32.82839 | 37137 ft | 483 kts | 104° |
| 2026-05-08 00:54 | 35.08076 | 32.90627 | 37140 ft | 483 kts | 105° |
| 2026-05-08 00:54 | 35.05994 | 32.98400 | 37138 ft | 481 kts | 104° |
| 2026-05-08 00:55 | 35.03934 | 33.06165 | 37130 ft | 481 kts | 104° |
| 2026-05-08 00:55 | 35.01875 | 33.13923 | 37131 ft | 481 kts | 104° |
| 2026-05-08 00:56 | 34.99832 | 33.21679 | 37135 ft | 480 kts | 104° |
| 2026-05-08 00:56 | 34.97805 | 33.29421 | 37130 ft | 479 kts | 104° |
| 2026-05-08 00:57 | 34.95778 | 33.37163 | 37124 ft | 479 kts | 104° |
| 2026-05-08 00:57 | 34.93751 | 33.44909 | 37111 ft | 479 kts | 104° |
| 2026-05-08 00:58 | 34.91727 | 33.52644 | 37107 ft | 479 kts | 104° |
| 2026-05-08 00:58 | 34.89722 | 33.60283 | 37091 ft | 463 kts | 104° |
| 2026-05-08 00:58 | 34.88750 | 33.63965 | 37086 ft | 451 kts | 104° |
| 2026-05-08 00:59 | 34.87799 | 33.67552 | 37084 ft | 439 kts | 104° |
| 2026-05-08 00:59 | 34.86874 | 33.71030 | 37092 ft | 426 kts | 104° |
| 2026-05-08 00:59 | 34.85973 | 33.74431 | 37084 ft | 419 kts | 104° |
| 2026-05-08 01:00 | 34.84191 | 33.81144 | 37104 ft | 416 kts | 104° |
| 2026-05-08 01:00 | 34.82412 | 33.87834 | 37105 ft | 415 kts | 104° |
| 2026-05-08 01:01 | 34.80636 | 33.94515 | 37107 ft | 415 kts | 104° |
| 2026-05-08 01:01 | 34.78886 | 34.01151 | 37105 ft | 415 kts | 104° |
| 2026-05-08 01:02 | 34.77132 | 34.07828 | 37105 ft | 414 kts | 104° |
| 2026-05-08 01:02 | 34.75378 | 34.14507 | 37107 ft | 414 kts | 104° |
| 2026-05-08 01:03 | 34.73626 | 34.21179 | 37108 ft | 414 kts | 104° |
| 2026-05-08 01:03 | 34.71884 | 34.27860 | 37108 ft | 414 kts | 104° |
| 2026-05-08 01:04 | 34.70149 | 34.34536 | 37106 ft | 414 kts | 104° |
| 2026-05-08 01:04 | 34.68414 | 34.41209 | 37108 ft | 414 kts | 104° |
| 2026-05-08 01:05 | 34.66680 | 34.47883 | 37113 ft | 414 kts | 104° |
| 2026-05-08 01:05 | 34.64959 | 34.54559 | 37112 ft | 415 kts | 104° |
| 2026-05-08 01:06 | 34.63241 | 34.61246 | 37110 ft | 415 kts | 104° |
| 2026-05-08 01:06 | 34.61523 | 34.67923 | 37107 ft | 414 kts | 104° |
| 2026-05-08 01:07 | 34.59805 | 34.74606 | 37113 ft | 414 kts | 104° |
| 2026-05-08 01:07 | 34.58120 | 34.81250 | 37109 ft | 415 kts | 104° |
| 2026-05-08 01:08 | 34.56426 | 34.87937 | 37108 ft | 415 kts | 104° |
| 2026-05-08 01:08 | 34.54733 | 34.94624 | 37108 ft | 415 kts | 104° |
| 2026-05-08 01:09 | 34.53037 | 35.01316 | 37129 ft | 416 kts | 104° |
| 2026-05-08 01:09 | 34.51350 | 35.08022 | 37124 ft | 416 kts | 104° |
| 2026-05-08 01:10 | 34.49667 | 35.14724 | 37122 ft | 416 kts | 104° |
| 2026-05-08 01:10 | 34.47982 | 35.21429 | 37120 ft | 416 kts | 104° |
| 2026-05-08 01:11 | 34.46303 | 35.28132 | 37120 ft | 415 kts | 104° |
| 2026-05-08 01:11 | 34.44641 | 35.34820 | 37119 ft | 414 kts | 104° |
| 2026-05-08 01:12 | 34.42982 | 35.41496 | 37118 ft | 414 kts | 104° |
| 2026-05-08 01:12 | 34.41323 | 35.48167 | 37118 ft | 414 kts | 104° |
| 2026-05-08 01:13 | 34.39670 | 35.54846 | 37118 ft | 414 kts | 104° |
| 2026-05-08 01:13 | 34.38024 | 35.61534 | 37125 ft | 414 kts | 104° |
| 2026-05-08 01:14 | 34.36379 | 35.68219 | 37125 ft | 415 kts | 104° |
| 2026-05-08 01:14 | 34.34742 | 35.74862 | 37128 ft | 415 kts | 104° |
| 2026-05-08 01:15 | 34.33108 | 35.81553 | 37146 ft | 415 kts | 104° |
| 2026-05-08 01:15 | 34.31477 | 35.88260 | 37156 ft | 415 kts | 104° |
| 2026-05-08 01:16 | 34.29848 | 35.94963 | 37153 ft | 415 kts | 104° |
| 2026-05-08 01:16 | 34.28220 | 36.01667 | 37163 ft | 415 kts | 104° |
| 2026-05-08 01:17 | 34.26593 | 36.08361 | 37175 ft | 415 kts | 104° |
| 2026-05-08 01:17 | 34.24965 | 36.15066 | 37169 ft | 416 kts | 104° |
| 2026-05-08 01:18 | 34.23335 | 36.21763 | 37170 ft | 416 kts | 104° |
| 2026-05-08 01:18 | 34.21713 | 36.28462 | 37168 ft | 415 kts | 104° |
| 2026-05-08 01:19 | 34.20106 | 36.35147 | 37171 ft | 415 kts | 104° |
| 2026-05-08 01:19 | 34.18501 | 36.41838 | 37180 ft | 414 kts | 104° |
| 2026-05-08 01:20 | 34.16897 | 36.48523 | 37179 ft | 414 kts | 104° |
| 2026-05-08 01:20 | 34.15303 | 36.55216 | 37173 ft | 415 kts | 104° |
| 2026-05-08 01:21 | 34.13715 | 36.61911 | 37174 ft | 415 kts | 104° |
| 2026-05-08 01:21 | 34.12128 | 36.68603 | 37171 ft | 415 kts | 104° |
| 2026-05-08 01:22 | 34.10545 | 36.75293 | 37167 ft | 415 kts | 104° |
| 2026-05-08 01:22 | 34.08985 | 36.81943 | 37176 ft | 415 kts | 104° |
| 2026-05-08 01:23 | 34.07418 | 36.88640 | 37164 ft | 415 kts | 104° |
| 2026-05-08 01:23 | 34.05850 | 36.95333 | 37158 ft | 415 kts | 104° |
| 2026-05-08 01:24 | 34.04286 | 37.02030 | 37160 ft | 415 kts | 104° |
| 2026-05-08 01:24 | 34.02739 | 37.08728 | 37156 ft | 415 kts | 104° |
| 2026-05-08 01:25 | 34.01193 | 37.15421 | 37163 ft | 415 kts | 104° |
| 2026-05-08 01:25 | 33.99637 | 37.22132 | 37170 ft | 416 kts | 104° |
| 2026-05-08 01:26 | 33.98092 | 37.28849 | 37158 ft | 416 kts | 104° |
| 2026-05-08 01:26 | 33.96562 | 37.35563 | 37147 ft | 416 kts | 104° |
| 2026-05-08 01:27 | 33.95030 | 37.42284 | 37155 ft | 416 kts | 104° |
| 2026-05-08 01:27 | 33.93501 | 37.48994 | 37150 ft | 415 kts | 104° |
| 2026-05-08 01:28 | 33.92002 | 37.55703 | 37139 ft | 414 kts | 104° |
| 2026-05-08 01:28 | 33.90507 | 37.62401 | 37135 ft | 414 kts | 104° |
| 2026-05-08 01:29 | 33.89016 | 37.69078 | 37137 ft | 413 kts | 104° |
| 2026-05-08 01:29 | 33.87545 | 37.75744 | 37128 ft | 411 kts | 104° |
| 2026-05-08 01:30 | 33.86103 | 37.82387 | 37124 ft | 410 kts | 104° |
| 2026-05-08 01:30 | 33.84663 | 37.89028 | 37126 ft | 410 kts | 104° |
| 2026-05-08 01:31 | 33.83226 | 37.95663 | 37117 ft | 410 kts | 104° |
| 2026-05-08 01:31 | 33.81848 | 38.02247 | 37109 ft | 408 kts | 104° |
| 2026-05-08 01:32 | 33.80481 | 38.08868 | 37115 ft | 408 kts | 104° |
| 2026-05-08 01:32 | 33.79114 | 38.15481 | 37112 ft | 408 kts | 104° |
| 2026-05-08 01:33 | 33.77764 | 38.22097 | 37100 ft | 407 kts | 104° |
| 2026-05-08 01:33 | 33.76481 | 38.28701 | 37100 ft | 406 kts | 104° |
| 2026-05-08 01:34 | 33.75201 | 38.35306 | 37098 ft | 406 kts | 104° |
| 2026-05-08 01:34 | 33.73920 | 38.41905 | 37098 ft | 406 kts | 104° |
| 2026-05-08 01:35 | 33.72640 | 38.48504 | 37106 ft | 406 kts | 104° |
| 2026-05-08 01:35 | 33.71359 | 38.55105 | 37104 ft | 406 kts | 104° |
| 2026-05-08 01:36 | 33.70286 | 38.60591 | 37117 ft | 407 kts | 104° |
| 2026-05-08 01:36 | 33.68978 | 38.67208 | 37115 ft | 407 kts | 104° |
| 2026-05-08 01:37 | 33.67723 | 38.73841 | 37118 ft | 408 kts | 104° |
| 2026-05-08 01:37 | 33.66472 | 38.80480 | 37121 ft | 408 kts | 104° |
| 2026-05-08 01:38 | 33.65219 | 38.87127 | 37115 ft | 408 kts | 104° |
| 2026-05-08 01:38 | 33.63985 | 38.93782 | 37114 ft | 410 kts | 104° |
| 2026-05-08 01:39 | 33.62775 | 39.00467 | 37117 ft | 410 kts | 104° |
| 2026-05-08 01:39 | 33.61565 | 39.07157 | 37117 ft | 410 kts | 104° |
| 2026-05-08 01:40 | 33.60358 | 39.13851 | 37119 ft | 411 kts | 104° |
| 2026-05-08 01:40 | 33.59188 | 39.20526 | 37119 ft | 412 kts | 104° |
| 2026-05-08 01:41 | 33.58013 | 39.27249 | 37124 ft | 412 kts | 104° |
| 2026-05-08 01:41 | 33.56838 | 39.33974 | 37119 ft | 412 kts | 104° |
| 2026-05-08 01:42 | 33.55669 | 39.40702 | 37118 ft | 412 kts | 104° |
| 2026-05-08 01:42 | 33.54507 | 39.47433 | 37119 ft | 412 kts | 104° |
| 2026-05-08 01:43 | 33.53344 | 39.54163 | 37119 ft | 412 kts | 104° |
| 2026-05-08 01:43 | 33.52188 | 39.60889 | 37104 ft | 412 kts | 104° |
| 2026-05-08 01:44 | 33.51044 | 39.67624 | 37109 ft | 412 kts | 104° |
| 2026-05-08 01:44 | 33.49901 | 39.74357 | 37109 ft | 412 kts | 104° |
| 2026-05-08 01:45 | 33.48760 | 39.81086 | 37106 ft | 412 kts | 105° |
| 2026-05-08 01:45 | 33.47652 | 39.87816 | 37104 ft | 412 kts | 104° |
| 2026-05-08 01:46 | 33.46553 | 39.94540 | 37104 ft | 411 kts | 104° |
| 2026-05-08 01:46 | 33.45454 | 40.01264 | 37099 ft | 411 kts | 104° |
| 2026-05-08 01:47 | 33.44378 | 40.07997 | 37088 ft | 412 kts | 104° |
| 2026-05-08 01:47 | 33.43338 | 40.14686 | 37088 ft | 412 kts | 104° |
| 2026-05-08 01:48 | 33.41766 | 40.24793 | 37092 ft | 412 kts | 104° |
| 2026-05-08 01:48 | 33.40759 | 40.31540 | 37079 ft | 412 kts | 104° |
| 2026-05-08 01:49 | 33.39776 | 40.38301 | 37084 ft | 412 kts | 104° |
| 2026-05-08 01:49 | 33.38794 | 40.45058 | 37075 ft | 412 kts | 104° |
| 2026-05-08 01:50 | 33.37825 | 40.51826 | 37086 ft | 413 kts | 104° |
| 2026-05-08 01:50 | 33.36862 | 40.58609 | 37083 ft | 414 kts | 104° |
| 2026-05-08 01:51 | 33.35895 | 40.65402 | 37081 ft | 414 kts | 104° |
| 2026-05-08 01:51 | 33.34929 | 40.72193 | 37083 ft | 414 kts | 104° |
| 2026-05-08 01:52 | 33.33964 | 40.78981 | 37079 ft | 414 kts | 104° |
| 2026-05-08 01:52 | 33.33000 | 40.85770 | 37079 ft | 414 kts | 104° |
| 2026-05-08 01:53 | 33.32043 | 40.92515 | 37078 ft | 414 kts | 104° |
| 2026-05-08 01:53 | 33.31116 | 40.99307 | 37065 ft | 414 kts | 104° |
| 2026-05-08 01:54 | 33.30190 | 41.06106 | 37066 ft | 414 kts | 104° |
| 2026-05-08 01:54 | 33.29264 | 41.12904 | 37076 ft | 414 kts | 104° |
| 2026-05-08 01:55 | 33.28374 | 41.19708 | 37050 ft | 414 kts | 104° |
| 2026-05-08 01:55 | 33.27502 | 41.26515 | 37047 ft | 414 kts | 104° |
| 2026-05-08 01:56 | 33.26620 | 41.33320 | 37073 ft | 415 kts | 104° |
| 2026-05-08 01:56 | 33.25732 | 41.40143 | 37061 ft | 416 kts | 104° |
| 2026-05-08 01:57 | 33.24859 | 41.46968 | 37061 ft | 415 kts | 104° |
| 2026-05-08 01:57 | 33.23986 | 41.53785 | 37055 ft | 415 kts | 104° |
| 2026-05-08 01:58 | 33.23131 | 41.60612 | 37042 ft | 415 kts | 104° |
| 2026-05-08 01:58 | 33.22310 | 41.67435 | 37045 ft | 415 kts | 104° |
| 2026-05-08 01:59 | 33.21490 | 41.74254 | 37047 ft | 415 kts | 104° |
| 2026-05-08 01:59 | 33.20682 | 41.81070 | 37023 ft | 414 kts | 104° |
| 2026-05-08 02:00 | 33.19904 | 41.87886 | 37018 ft | 414 kts | 104° |
| 2026-05-08 02:00 | 33.19129 | 41.94700 | 37025 ft | 414 kts | 104° |
| 2026-05-08 02:01 | 33.18359 | 42.01500 | 37016 ft | 413 kts | 104° |
| 2026-05-08 02:01 | 33.17604 | 42.08303 | 37013 ft | 414 kts | 104° |
| 2026-05-08 02:02 | 33.16849 | 42.15114 | 37011 ft | 414 kts | 104° |
| 2026-05-08 02:02 | 33.16096 | 42.21919 | 36992 ft | 414 kts | 104° |
| 2026-05-08 02:03 | 33.15357 | 42.28731 | 36989 ft | 414 kts | 104° |
| 2026-05-08 02:03 | 33.14623 | 42.35498 | 36988 ft | 414 kts | 104° |
| 2026-05-08 02:04 | 33.13887 | 42.42310 | 36961 ft | 414 kts | 104° |
| 2026-05-08 02:04 | 33.13170 | 42.49135 | 36956 ft | 415 kts | 104° |
| 2026-05-08 02:05 | 33.12454 | 42.55971 | 36960 ft | 415 kts | 104° |
| 2026-05-08 02:05 | 33.11741 | 42.62805 | 36936 ft | 416 kts | 104° |
| 2026-05-08 02:06 | 33.11053 | 42.69661 | 36957 ft | 417 kts | 104° |
| 2026-05-08 02:06 | 33.10355 | 42.76522 | 36952 ft | 417 kts | 104° |
| 2026-05-08 02:07 | 33.09659 | 42.83382 | 36952 ft | 417 kts | 104° |
| 2026-05-08 02:07 | 33.08964 | 42.90241 | 36948 ft | 417 kts | 104° |
| 2026-05-08 02:08 | 33.08269 | 42.97094 | 36943 ft | 416 kts | 104° |
| 2026-05-08 02:08 | 33.07578 | 43.03956 | 36928 ft | 417 kts | 104° |
| 2026-05-08 02:09 | 33.06930 | 43.10848 | 36927 ft | 419 kts | 104° |
| 2026-05-08 02:09 | 33.06285 | 43.17746 | 36927 ft | 419 kts | 104° |
| 2026-05-08 02:10 | 33.05644 | 43.24647 | 36920 ft | 420 kts | 104° |
| 2026-05-08 02:10 | 33.05022 | 43.31572 | 36918 ft | 420 kts | 104° |
| 2026-05-08 02:11 | 33.04400 | 43.38500 | 36917 ft | 420 kts | 104° |
| 2026-05-08 02:11 | 33.03787 | 43.45437 | 36891 ft | 423 kts | 104° |
| 2026-05-08 02:12 | 33.03261 | 43.52443 | 36891 ft | 425 kts | 104° |
| 2026-05-08 02:12 | 33.02742 | 43.59464 | 36891 ft | 425 kts | 104° |
| 2026-05-08 02:13 | 33.02239 | 43.66494 | 36875 ft | 428 kts | 104° |
| 2026-05-08 02:13 | 33.01788 | 43.73581 | 36872 ft | 429 kts | 104° |
| 2026-05-08 02:14 | 33.01334 | 43.80666 | 36880 ft | 428 kts | 104° |
| 2026-05-08 02:14 | 33.00864 | 43.87750 | 36864 ft | 430 kts | 104° |
| 2026-05-08 02:15 | 33.00433 | 43.94871 | 36865 ft | 431 kts | 104° |
| 2026-05-08 02:15 | 33.00004 | 44.01984 | 36861 ft | 430 kts | 104° |
| 2026-05-08 02:16 | 32.99614 | 44.09109 | 36840 ft | 432 kts | 104° |
| 2026-05-08 02:16 | 32.99251 | 44.16264 | 36837 ft | 433 kts | 104° |
| 2026-05-08 02:17 | 32.98891 | 44.23377 | 36818 ft | 433 kts | 104° |
| 2026-05-08 02:17 | 32.98570 | 44.30550 | 36832 ft | 434 kts | 104° |
| 2026-05-08 02:18 | 32.98221 | 44.37733 | 36833 ft | 434 kts | 104° |
| 2026-05-08 02:18 | 32.97878 | 44.44914 | 36806 ft | 435 kts | 104° |
| 2026-05-08 02:19 | 32.97577 | 44.52110 | 36810 ft | 435 kts | 104° |
| 2026-05-08 02:19 | 32.97279 | 44.59304 | 36811 ft | 435 kts | 104° |
| 2026-05-08 02:20 | 32.96990 | 44.66509 | 36793 ft | 436 kts | 104° |
| 2026-05-08 02:20 | 32.96711 | 44.73714 | 36793 ft | 436 kts | 104° |
| 2026-05-08 02:21 | 32.96419 | 44.80922 | 36817 ft | 436 kts | 104° |
| 2026-05-08 02:21 | 32.96112 | 44.88132 | 36822 ft | 436 kts | 104° |
| 2026-05-08 02:22 | 32.95805 | 44.95341 | 36823 ft | 436 kts | 104° |
| 2026-05-08 02:22 | 32.95503 | 45.02555 | 36801 ft | 437 kts | 104° |
| 2026-05-08 02:23 | 32.95217 | 45.09777 | 36804 ft | 437 kts | 104° |
| 2026-05-08 02:23 | 32.94933 | 45.17000 | 36804 ft | 437 kts | 104° |
| 2026-05-08 02:24 | 32.94653 | 45.24179 | 36778 ft | 438 kts | 104° |
| 2026-05-08 02:24 | 32.94375 | 45.31423 | 36778 ft | 438 kts | 104° |
| 2026-05-08 02:25 | 32.94098 | 45.38669 | 36776 ft | 438 kts | 104° |
| 2026-05-08 02:25 | 32.93864 | 45.44747 | 36769 ft | 439 kts | 104° |
| 2026-05-08 02:26 | 32.93583 | 45.52009 | 36772 ft | 439 kts | 104° |
| 2026-05-08 02:26 | 32.93300 | 45.59279 | 36783 ft | 440 kts | 104° |
| 2026-05-08 02:27 | 32.93026 | 45.66554 | 36761 ft | 440 kts | 104° |
| 2026-05-08 02:27 | 32.92756 | 45.73782 | 36767 ft | 440 kts | 104° |
| 2026-05-08 02:28 | 32.92485 | 45.81069 | 36757 ft | 441 kts | 104° |
| 2026-05-08 02:28 | 32.92215 | 45.88369 | 36760 ft | 442 kts | 104° |
| 2026-05-08 02:29 | 32.91945 | 45.95669 | 36762 ft | 442 kts | 104° |
| 2026-05-08 02:29 | 32.91682 | 46.02973 | 36739 ft | 442 kts | 104° |
| 2026-05-08 02:30 | 32.91438 | 46.10277 | 36736 ft | 441 kts | 104° |
| 2026-05-08 02:30 | 32.91195 | 46.17571 | 36737 ft | 441 kts | 104° |
| 2026-05-08 02:31 | 32.90961 | 46.24860 | 36731 ft | 440 kts | 104° |
| 2026-05-08 02:31 | 32.90728 | 46.32140 | 36734 ft | 440 kts | 104° |
| 2026-05-08 02:32 | 32.90494 | 46.39420 | 36735 ft | 441 kts | 104° |
| 2026-05-08 02:32 | 32.90271 | 46.46709 | 36708 ft | 440 kts | 104° |
| 2026-05-08 02:33 | 32.90057 | 46.53976 | 36709 ft | 439 kts | 104° |
| 2026-05-08 02:33 | 32.89848 | 46.61198 | 36700 ft | 440 kts | 104° |
| 2026-05-08 02:34 | 32.89639 | 46.68486 | 36705 ft | 441 kts | 104° |
| 2026-05-08 02:34 | 32.89435 | 46.75761 | 36688 ft | 435 kts | 103° |
| 2026-05-08 02:35 | 32.89295 | 46.82822 | 36692 ft | 422 kts | 103° |
| 2026-05-08 02:35 | 32.89186 | 46.89765 | 36495 ft | 421 kts | 103° |
| 2026-05-08 02:36 | 32.89131 | 46.93250 | 36355 ft | 422 kts | 103° |
| 2026-05-08 02:36 | 32.89073 | 46.96744 | 36297 ft | 422 kts | 103° |
| 2026-05-08 02:36 | 32.88963 | 47.03727 | 35940 ft | 416 kts | 104° |
| 2026-05-08 02:37 | 32.88924 | 47.07143 | 35598 ft | 411 kts | 102° |
| 2026-05-08 02:37 | 32.89017 | 47.10540 | 35308 ft | 410 kts | 97° |
| 2026-05-08 02:37 | 32.89299 | 47.13910 | 35034 ft | 410 kts | 91° |
| 2026-05-08 02:37 | 32.89889 | 47.17230 | 34800 ft | 412 kts | 81° |
| 2026-05-08 02:38 | 32.90930 | 47.20411 | 34594 ft | 413 kts | 68° |
| 2026-05-08 02:38 | 32.92472 | 47.23274 | 34398 ft | 409 kts | 50° |
| 2026-05-08 02:38 | 32.94530 | 47.25518 | 34201 ft | 395 kts | 28° |
| 2026-05-08 02:38 | 32.96909 | 47.26954 | 34030 ft | 373 kts | 8° |
| 2026-05-08 02:39 | 32.99337 | 47.27573 | 33765 ft | 340 kts | 348° |
| 2026-05-08 02:39 | 33.01562 | 47.27455 | 33463 ft | 301 kts | 328° |
| 2026-05-08 02:39 | 33.03408 | 47.26757 | 33102 ft | 256 kts | 308° |
| 2026-05-08 02:39 | 33.04752 | 47.25694 | 32668 ft | 209 kts | 287° |
| 2026-05-08 02:40 | 33.05533 | 47.24568 | 31652 ft | 136 kts | 243° |
| 2026-05-08 02:40 | 33.06297 | 47.24528 | 24720 ft | 246 kts | 34° |
| 2026-05-08 02:40 | 33.08533 | 47.27234 | 20759 ft | 478 kts | 41° |
| 2026-05-08 02:40 | 33.10524 | 47.29177 | 25803 ft | 306 kts | 28° |
| 2026-05-08 02:41 | 33.12047 | 47.30108 | 27954 ft | 196 kts | 347° |
| 2026-05-08 02:41 | 33.13208 | 47.30528 | 25668 ft | 170 kts | 342° |
| 2026-05-08 02:41 | 33.14862 | 47.30199 | 21091 ft | 312 kts | 332° |
| 2026-05-08 02:41 | 33.17138 | 47.28801 | 15280 ft | 439 kts | 318° |
| 2026-05-08 02:42 | 33.19410 | 47.25881 | 11267 ft | 503 kts | 300° |
| 2026-05-08 02:42 | 33.20788 | 47.22048 | 8040 ft | 506 kts | 281° |
| 2026-05-08 02:42 | 33.20823 | 47.17901 | 4644 ft | 363 kts | 92° |
| 2026-05-08 02:42 | 33.20740 | 47.16689 | 4131 ft | 1 kts | 196° |
| 2026-05-08 02:43 | 33.20739 | 47.16689 | 4131 ft | 0 kts | 198° |
| 2026-05-08 02:43 | 33.20738 | 47.16690 | 4130 ft | 0 kts | 201° |